Time;durP1;ratioP1;P1;durP2;ratioP2;P2;SDS_P1;SDS_P2;PMS_P1;PMS_P2;Temp;Humidity;BMP_temperature;BMP_pressure;BME280_temperature;BME280_humidity;BME280_pressure;Samples;Min_cycle;Max_cycle;Signal;HPM_P1;HPM_P2
2023/03/17 00:01:04;;;;;;;4.13;1.80;;;;;;;;;;4989662;28;20038;-75
2023/03/17 00:03:35;;;;;;;3.45;1.60;;;;;;;;;;4989646;28;20592;-76
2023/03/17 00:06:02;;;;;;;3.65;1.95;;;;;;;;;;4988240;28;20030;-75
2023/03/17 00:08:31;;;;;;;5.15;2.00;;;;;;;;;;4989106;28;20030;-74
2023/03/17 00:10:56;;;;;;;3.70;2.10;;;;;;;;;;4984014;28;20033;-75
2023/03/17 00:13:22;;;;;;;2.53;1.65;;;;;;;;;;4988484;28;20038;-75
2023/03/17 00:15:53;;;;;;;4.00;1.65;;;;;;;;;;4989205;28;20031;-75
2023/03/17 00:18:19;;;;;;;3.88;1.85;;;;;;;;;;5004432;28;20034;-75
2023/03/17 00:20:46;;;;;;;3.45;2.03;;;;;;;;;;4988009;28;20022;-75
2023/03/17 00:23:15;;;;;;;6.47;2.22;;;;;;;;;;4988366;28;20018;-75
2023/03/17 00:25:44;;;;;;;3.40;1.92;;;;;;;;;;4989477;28;20030;-76
2023/03/17 00:28:16;;;;;;;7.20;1.80;;;;;;;;;;4985794;28;20436;-75
2023/03/17 00:30:41;;;;;;;6.68;1.88;;;;;;;;;;4984812;28;20039;-75
2023/03/17 00:33:09;;;;;;;3.95;1.80;;;;;;;;;;4989454;28;20085;-75
2023/03/17 00:35:34;;;;;;;3.28;1.60;;;;;;;;;;4988708;28;20049;-75
2023/03/17 00:37:59;;;;;;;5.07;1.77;;;;;;;;;;4988720;28;20483;-75
2023/03/17 00:40:29;;;;;;;5.03;2.08;;;;;;;;;;4988744;28;20062;-75
2023/03/17 00:42:54;;;;;;;2.78;1.55;;;;;;;;;;4988818;28;20038;-76
2023/03/17 00:45:22;;;;;;;3.83;1.70;;;;;;;;;;4986646;28;20037;-75
2023/03/17 00:47:49;;;;;;;3.30;1.75;;;;;;;;;;4986349;28;20068;-75
2023/03/17 00:50:18;;;;;;;3.78;1.70;;;;;;;;;;4987805;28;20575;-75
2023/03/17 00:52:44;;;;;;;6.15;1.70;;;;;;;;;;4988600;28;20515;-75
2023/03/17 00:55:11;;;;;;;4.20;1.88;;;;;;;;;;4988382;28;20034;-75
2023/03/17 00:57:38;;;;;;;4.97;1.80;;;;;;;;;;4987843;28;20031;-75
2023/03/17 01:00:06;;;;;;;6.35;2.10;;;;;;;;;;4988074;28;20038;-76
2023/03/17 01:02:31;;;;;;;4.97;1.73;;;;;;;;;;4987254;28;20028;-75
2023/03/17 01:04:57;;;;;;;5.50;2.22;;;;;;;;;;4988463;28;20118;-75
2023/03/17 01:07:23;;;;;;;3.72;1.88;;;;;;;;;;4988222;28;20046;-75
2023/03/17 01:09:49;;;;;;;2.95;1.73;;;;;;;;;;4988085;28;20113;-75
2023/03/17 01:12:14;;;;;;;4.40;1.80;;;;;;;;;;4985854;28;20045;-75
2023/03/17 01:14:40;;;;;;;7.32;1.70;;;;;;;;;;4986975;28;20026;-75
2023/03/17 01:17:14;;;;;;;5.10;1.83;;;;;;;;;;4988520;28;20018;-75
2023/03/17 01:19:39;;;;;;;5.05;1.73;;;;;;;;;;4987252;28;20232;-75
2023/03/17 01:22:04;;;;;;;4.32;1.60;;;;;;;;;;4986440;28;20515;-75
2023/03/17 01:24:30;;;;;;;4.38;1.60;;;;;;;;;;4988032;28;20465;-75
2023/03/17 01:26:55;;;;;;;2.20;1.58;;;;;;;;;;4986311;28;20081;-75
2023/03/17 01:29:21;;;;;;;3.22;1.50;;;;;;;;;;4988786;28;20049;-75
2023/03/17 01:31:47;;;;;;;5.00;1.65;;;;;;;;;;4987685;28;20034;-76
2023/03/17 01:34:12;;;;;;;3.70;1.60;;;;;;;;;;4983889;28;20523;-76
2023/03/17 01:36:37;;;;;;;7.93;1.98;;;;;;;;;;4987888;28;20161;-76
2023/03/17 01:39:04;;;;;;;3.15;1.60;;;;;;;;;;4987441;28;20034;-76
2023/03/17 01:41:35;;;;;;;3.15;1.60;;;;;;;;;;4985975;28;20042;-75
2023/03/17 01:44:00;;;;;;;4.03;1.48;;;;;;;;;;4987890;28;20019;-75
2023/03/17 01:46:30;;;;;;;5.30;2.10;;;;;;;;;;4984038;28;20093;-75
2023/03/17 01:49:26;;;;;;;6.05;1.80;;;;;;;;;;4987378;28;20138;-76
2023/03/17 01:52:05;;;;;;;4.05;2.03;;;;;;;;;;4985980;28;20125;-76
2023/03/17 01:54:41;;;;;;;4.10;2.25;;;;;;;;;;4986720;28;20036;-75
2023/03/17 01:57:14;;;;;;;5.05;2.25;;;;;;;;;;4987233;28;20030;-75
2023/03/17 01:59:46;;;;;;;6.72;2.10;;;;;;;;;;4987010;28;20022;-75
2023/03/17 02:02:16;;;;;;;4.53;2.00;;;;;;;;;;4986330;28;20487;-75
2023/03/17 02:04:42;;;;;;;3.00;1.80;;;;;;;;;;4986743;28;20040;-75
2023/03/17 02:07:08;;;;;;;2.30;1.77;;;;;;;;;;4987358;28;20038;-75
2023/03/17 02:09:35;;;;;;;2.13;1.30;;;;;;;;;;4986630;28;20541;-75
2023/03/17 02:12:02;;;;;;;5.82;1.70;;;;;;;;;;4986478;28;20110;-75
2023/03/17 02:14:28;;;;;;;5.65;1.60;;;;;;;;;;4987043;28;20054;-75
2023/03/17 02:16:54;;;;;;;5.55;1.90;;;;;;;;;;4987044;28;20025;-75
2023/03/17 02:19:19;;;;;;;4.07;1.60;;;;;;;;;;4985215;28;20061;-76
2023/03/17 02:21:48;;;;;;;3.75;1.88;;;;;;;;;;4987369;28;20057;-75
2023/03/17 02:24:20;;;;;;;3.67;1.55;;;;;;;;;;4986246;28;20736;-75
2023/03/17 02:26:48;;;;;;;7.68;2.05;;;;;;;;;;4981945;28;22508;-75
2023/03/17 02:29:14;;;;;;;1.85;1.35;;;;;;;;;;4984012;28;20621;-75
2023/03/17 02:31:40;;;;;;;3.17;1.30;;;;;;;;;;4984992;28;20448;-75
2023/03/17 02:34:05;;;;;;;2.97;1.40;;;;;;;;;;4986610;28;20113;-75
2023/03/17 02:36:31;;;;;;;3.92;1.77;;;;;;;;;;4985397;28;20034;-75
2023/03/17 02:38:56;;;;;;;3.42;2.00;;;;;;;;;;4986805;28;20045;-75
2023/03/17 02:41:22;;;;;;;3.67;1.73;;;;;;;;;;4978647;28;20030;-73
2023/03/17 02:43:47;;;;;;;3.13;1.50;;;;;;;;;;4982392;28;20041;-73
2023/03/17 02:46:13;;;;;;;5.07;1.50;;;;;;;;;;4984017;28;20040;-74
2023/03/17 02:48:39;;;;;;;2.85;1.67;;;;;;;;;;4981297;28;20039;-74
2023/03/17 02:51:04;;;;;;;2.08;1.55;;;;;;;;;;4979714;28;20038;-74
2023/03/17 02:53:30;;;;;;;3.38;1.80;;;;;;;;;;4968802;28;20057;-74
2023/03/17 02:55:56;;;;;;;3.38;1.95;;;;;;;;;;4986672;28;20109;-75
2023/03/17 02:58:22;;;;;;;3.92;1.88;;;;;;;;;;4986171;28;20058;-74
2023/03/17 03:00:48;;;;;;;3.90;1.90;;;;;;;;;;4984458;28;20084;-74
2023/03/17 03:03:14;;;;;;;2.22;1.42;;;;;;;;;;4984162;28;20096;-75
2023/03/17 03:05:40;;;;;;;2.90;1.75;;;;;;;;;;4981831;28;20026;-74
2023/03/17 03:08:05;;;;;;;6.05;1.75;;;;;;;;;;4986767;28;20097;-75
2023/03/17 03:10:31;;;;;;;2.78;1.50;;;;;;;;;;4985506;28;20455;-73
2023/03/17 03:12:56;;;;;;;3.13;1.60;;;;;;;;;;4984405;28;20037;-74
2023/03/17 03:15:22;;;;;;;3.70;1.63;;;;;;;;;;4992559;28;20046;-74
2023/03/17 03:17:47;;;;;;;3.38;1.50;;;;;;;;;;4991247;28;20458;-74
2023/03/17 03:20:13;;;;;;;3.25;1.70;;;;;;;;;;4993332;28;20483;-75
2023/03/17 03:22:38;;;;;;;5.03;1.52;;;;;;;;;;4992613;28;20073;-74
2023/03/17 03:25:06;;;;;;;6.15;1.63;;;;;;;;;;4992549;28;20062;-74
2023/03/17 03:27:33;;;;;;;4.63;2.10;;;;;;;;;;4982911;28;20038;-75
2023/03/17 03:29:58;;;;;;;2.78;1.80;;;;;;;;;;4989458;28;20537;-74
2023/03/17 03:32:24;;;;;;;6.68;2.05;;;;;;;;;;4992586;28;20029;-74
2023/03/17 03:34:49;;;;;;;5.97;2.33;;;;;;;;;;4987391;28;20065;-74
2023/03/17 03:37:14;;;;;;;2.33;1.77;;;;;;;;;;4992314;28;20038;-75
2023/03/17 03:39:40;;;;;;;6.28;2.00;;;;;;;;;;4992421;28;20057;-74
2023/03/17 03:42:05;;;;;;;3.28;1.35;;;;;;;;;;4990910;28;20034;-74
2023/03/17 03:44:31;;;;;;;3.00;1.63;;;;;;;;;;4991146;28;20030;-74
2023/03/17 03:46:56;;;;;;;6.60;2.00;;;;;;;;;;4992694;28;20054;-74
2023/03/17 03:49:21;;;;;;;3.40;2.00;;;;;;;;;;4991952;28;20574;-74
2023/03/17 03:51:47;;;;;;;3.15;1.80;;;;;;;;;;4991860;28;20038;-74
2023/03/17 03:54:12;;;;;;;3.15;1.65;;;;;;;;;;4991358;28;20034;-75
2023/03/17 03:56:37;;;;;;;3.42;1.70;;;;;;;;;;4992201;28;20034;-74
2023/03/17 03:59:03;;;;;;;2.85;1.75;;;;;;;;;;4992614;28;20566;-75
2023/03/17 04:01:28;;;;;;;4.03;2.08;;;;;;;;;;4991029;28;20045;-74
2023/03/17 04:03:53;;;;;;;2.92;1.73;;;;;;;;;;4992302;28;20774;-75
2023/03/17 04:06:19;;;;;;;3.00;1.67;;;;;;;;;;4989589;28;20121;-75
2023/03/17 04:08:44;;;;;;;5.78;2.15;;;;;;;;;;4973791;28;20031;-75
2023/03/17 04:11:10;;;;;;;4.53;1.60;;;;;;;;;;4973202;28;20038;-75
2023/03/17 04:13:35;;;;;;;4.32;1.90;;;;;;;;;;4975692;28;20046;-74
2023/03/17 04:16:01;;;;;;;5.40;2.10;;;;;;;;;;4991339;28;20030;-75
2023/03/17 04:18:26;;;;;;;2.50;1.70;;;;;;;;;;4992372;28;20058;-75
2023/03/17 04:20:52;;;;;;;3.00;1.60;;;;;;;;;;4992001;28;20042;-75
2023/03/17 04:23:17;;;;;;;4.43;2.03;;;;;;;;;;4991109;28;20022;-75
2023/03/17 04:25:43;;;;;;;3.58;1.90;;;;;;;;;;4988910;28;20053;-75
2023/03/17 04:28:09;;;;;;;5.07;1.92;;;;;;;;;;4989028;28;20045;-75
2023/03/17 04:30:35;;;;;;;4.82;1.90;;;;;;;;;;4986720;28;20509;-75
2023/03/17 04:33:00;;;;;;;4.38;1.95;;;;;;;;;;4988593;28;20504;-75
2023/03/17 04:35:25;;;;;;;3.67;2.00;;;;;;;;;;4988928;28;20497;-75
2023/03/17 04:37:51;;;;;;;4.72;2.22;;;;;;;;;;4987974;28;20042;-75
2023/03/17 04:40:17;;;;;;;2.75;1.63;;;;;;;;;;4987168;28;20038;-75
2023/03/17 04:42:43;;;;;;;3.33;1.88;;;;;;;;;;4988980;28;20061;-74
2023/03/17 04:45:11;;;;;;;3.83;1.85;;;;;;;;;;4987712;28;20042;-75
2023/03/17 04:47:37;;;;;;;3.10;1.90;;;;;;;;;;4985650;28;20042;-74
2023/03/17 04:50:03;;;;;;;3.83;1.95;;;;;;;;;;4985667;28;20034;-75
2023/03/17 04:52:28;;;;;;;8.13;1.80;;;;;;;;;;5003429;28;20038;-74
2023/03/17 04:54:54;;;;;;;5.72;2.28;;;;;;;;;;4987812;28;20065;-75
2023/03/17 04:57:21;;;;;;;9.30;2.30;;;;;;;;;;4988689;28;20038;-75
2023/03/17 04:59:46;;;;;;;5.90;2.15;;;;;;;;;;4988131;28;20042;-75
2023/03/17 05:02:11;;;;;;;4.88;2.40;;;;;;;;;;4988944;28;20561;-75
2023/03/17 05:04:37;;;;;;;8.75;2.35;;;;;;;;;;4987278;28;20562;-75
2023/03/17 05:07:03;;;;;;;4.05;2.10;;;;;;;;;;4982683;28;20038;-74
2023/03/17 05:09:28;;;;;;;7.10;2.20;;;;;;;;;;4987369;28;20058;-75
2023/03/17 05:11:54;;;;;;;5.63;2.10;;;;;;;;;;4986529;28;20030;-75
2023/03/17 05:14:20;;;;;;;4.57;2.13;;;;;;;;;;4988212;28;20029;-75
2023/03/17 05:16:47;;;;;;;3.33;2.20;;;;;;;;;;4987415;28;20039;-75
2023/03/17 05:19:12;;;;;;;3.50;1.90;;;;;;;;;;4984814;28;20054;-75
2023/03/17 05:21:37;;;;;;;4.70;1.95;;;;;;;;;;4987595;28;20442;-75
2023/03/17 05:24:04;;;;;;;3.65;2.10;;;;;;;;;;4987879;28;20565;-75
2023/03/17 05:26:29;;;;;;;4.60;1.63;;;;;;;;;;4987954;28;20033;-74
2023/03/17 05:28:54;;;;;;;4.65;2.00;;;;;;;;;;4988132;28;20030;-75
2023/03/17 05:31:20;;;;;;;5.10;2.30;;;;;;;;;;4985102;28;20444;-74
2023/03/17 05:33:45;;;;;;;5.57;2.00;;;;;;;;;;4986150;28;20099;-75
2023/03/17 05:36:11;;;;;;;5.55;1.90;;;;;;;;;;4986245;28;20038;-75
2023/03/17 05:38:36;;;;;;;6.57;1.67;;;;;;;;;;4987301;28;20038;-75
2023/03/17 05:41:03;;;;;;;3.55;2.10;;;;;;;;;;4982005;28;20117;-74
2023/03/17 05:43:28;;;;;;;6.95;2.25;;;;;;;;;;4967633;28;20034;-75
2023/03/17 05:45:54;;;;;;;6.57;2.17;;;;;;;;;;4968218;28;20419;-75
2023/03/17 05:48:20;;;;;;;4.28;2.30;;;;;;;;;;4971697;28;20129;-74
2023/03/17 05:50:46;;;;;;;8.07;2.67;;;;;;;;;;4987867;28;20438;-74
2023/03/17 05:53:11;;;;;;;7.13;2.17;;;;;;;;;;4986458;28;20526;-75
2023/03/17 05:55:36;;;;;;;5.35;2.22;;;;;;;;;;4986663;28;20038;-75
2023/03/17 05:58:03;;;;;;;8.45;2.50;;;;;;;;;;4987899;28;20108;-75
2023/03/17 06:00:29;;;;;;;4.45;2.20;;;;;;;;;;4985901;28;20418;-75
2023/03/17 06:02:54;;;;;;;6.60;2.47;;;;;;;;;;4976842;28;20503;-75
2023/03/17 06:05:20;;;;;;;3.42;1.90;;;;;;;;;;4984668;28;20091;-75
2023/03/17 06:07:45;;;;;;;5.05;2.05;;;;;;;;;;4967826;28;20035;-75
2023/03/17 06:10:11;;;;;;;7.25;2.28;;;;;;;;;;4967417;28;20062;-75
2023/03/17 06:12:36;;;;;;;21.20;2.67;;;;;;;;;;4967730;28;20053;-75
2023/03/17 06:15:01;;;;;;;7.28;2.95;;;;;;;;;;4967905;28;20540;-75
2023/03/17 06:17:27;;;;;;;4.07;2.08;;;;;;;;;;4995981;28;20057;-74
2023/03/17 06:19:52;;;;;;;9.48;2.47;;;;;;;;;;4967310;28;20162;-75
2023/03/17 06:22:18;;;;;;;8.45;2.08;;;;;;;;;;4982237;28;20046;-75
2023/03/17 06:24:43;;;;;;;4.60;2.30;;;;;;;;;;4983165;28;20034;-74
2023/03/17 06:27:09;;;;;;;5.22;1.90;;;;;;;;;;4984398;28;20129;-75
2023/03/17 06:29:36;;;;;;;2.78;1.63;;;;;;;;;;4985739;28;20860;-74
2023/03/17 06:32:02;;;;;;;7.53;2.90;;;;;;;;;;4984259;28;20579;-74
2023/03/17 06:34:28;;;;;;;9.23;2.42;;;;;;;;;;4985383;28;20802;-75
2023/03/17 06:36:54;;;;;;;6.93;2.17;;;;;;;;;;4986917;28;20050;-75
2023/03/17 06:39:20;;;;;;;5.55;2.38;;;;;;;;;;4985125;28;20065;-75
2023/03/17 06:41:46;;;;;;;5.53;2.15;;;;;;;;;;4986586;28;20030;-75
2023/03/17 06:44:11;;;;;;;6.93;2.30;;;;;;;;;;4986577;28;20049;-74
2023/03/17 06:46:37;;;;;;;8.18;2.40;;;;;;;;;;4979522;28;20109;-74
2023/03/17 06:49:02;;;;;;;4.75;2.42;;;;;;;;;;4977858;28;20130;-74
2023/03/17 06:51:29;;;;;;;5.32;2.42;;;;;;;;;;4995778;28;20419;-74
2023/03/17 06:53:55;;;;;;;5.47;2.33;;;;;;;;;;4980838;28;20034;-75
2023/03/17 06:56:20;;;;;;;4.38;2.40;;;;;;;;;;4986425;28;20037;-74
2023/03/17 06:58:45;;;;;;;5.45;2.33;;;;;;;;;;4986251;28;20058;-75
2023/03/17 07:01:13;;;;;;;3.03;1.73;;;;;;;;;;4986207;28;20553;-75
2023/03/17 07:03:39;;;;;;;5.25;1.70;;;;;;;;;;4981881;28;20042;-74
2023/03/17 07:06:04;;;;;;;2.17;1.30;;;;;;;;;;4974540;28;20128;-74
2023/03/17 07:08:30;;;;;;;3.70;1.63;;;;;;;;;;4985983;28;20062;-74
2023/03/17 07:10:56;;;;;;;10.00;2.30;;;;;;;;;;4986744;28;20121;-74
2023/03/17 07:13:22;;;;;;;4.75;1.90;;;;;;;;;;4984255;28;20038;-75
2023/03/17 07:15:48;;;;;;;4.47;2.10;;;;;;;;;;4985168;28;20038;-75
2023/03/17 07:18:15;;;;;;;5.63;1.92;;;;;;;;;;4985798;28;20505;-74
2023/03/17 07:20:41;;;;;;;3.88;1.70;;;;;;;;;;4977485;28;20121;-74
2023/03/17 07:23:20;;;;;;;3.97;1.90;;;;;;;;;;4981820;28;20226;-74
2023/03/17 07:25:46;;;;;;;5.80;2.08;;;;;;;;;;4986853;28;20042;-74
2023/03/17 07:28:11;;;;;;;4.32;2.03;;;;;;;;;;4982387;28;20821;-74
2023/03/17 07:30:37;;;;;;;4.30;2.50;;;;;;;;;;4983002;28;20037;-75
2023/03/17 07:33:03;;;;;;;5.05;2.08;;;;;;;;;;4986644;28;20039;-75
2023/03/17 07:35:30;;;;;;;6.20;2.30;;;;;;;;;;4986137;28;20105;-75
2023/03/17 07:37:55;;;;;;;4.57;2.22;;;;;;;;;;4985814;28;20038;-75
2023/03/17 07:40:20;;;;;;;6.68;1.92;;;;;;;;;;4986759;28;20121;-75
2023/03/17 07:42:46;;;;;;;3.35;1.80;;;;;;;;;;4986666;28;20109;-76
2023/03/17 07:45:12;;;;;;;6.43;2.63;;;;;;;;;;4974754;28;20066;-76
2023/03/17 07:47:38;;;;;;;9.73;2.80;;;;;;;;;;4965488;28;20042;-77
2023/03/17 07:50:04;;;;;;;3.63;1.70;;;;;;;;;;4971603;28;20030;-77
2023/03/17 07:52:30;;;;;;;4.90;1.73;;;;;;;;;;4980420;28;20046;-76
2023/03/17 07:54:57;;;;;;;4.10;2.20;;;;;;;;;;4979683;28;20030;-76
2023/03/17 07:57:22;;;;;;;4.68;2.35;;;;;;;;;;4978060;28;20029;-75
2023/03/17 07:59:48;;;;;;;4.75;1.85;;;;;;;;;;4981266;28;20031;-76
2023/03/17 08:02:15;;;;;;;9.10;2.50;;;;;;;;;;4983179;28;20471;-77
2023/03/17 08:04:40;;;;;;;4.68;2.70;;;;;;;;;;4980056;28;20094;-77
2023/03/17 08:07:06;;;;;;;4.32;2.42;;;;;;;;;;4984808;28;20060;-77
2023/03/17 08:09:32;;;;;;;10.00;2.80;;;;;;;;;;4983896;28;20042;-77
2023/03/17 08:11:57;;;;;;;6.55;2.10;;;;;;;;;;4982462;28;20038;-77
2023/03/17 08:14:22;;;;;;;6.82;2.45;;;;;;;;;;4980277;28;20069;-73
2023/03/17 08:16:48;;;;;;;10.02;3.20;;;;;;;;;;4982532;28;20618;-76
2023/03/17 08:19:13;;;;;;;4.63;2.40;;;;;;;;;;4981532;28;20061;-76
2023/03/17 08:21:38;;;;;;;8.00;2.72;;;;;;;;;;4986637;28;20034;-77
2023/03/17 08:24:04;;;;;;;8.60;2.67;;;;;;;;;;4981769;28;20045;-77
2023/03/17 08:26:31;;;;;;;7.65;2.42;;;;;;;;;;4981051;28;20097;-77
2023/03/17 08:28:56;;;;;;;6.60;2.50;;;;;;;;;;4986261;28;20038;-77
2023/03/17 08:31:22;;;;;;;10.45;2.28;;;;;;;;;;4984200;28;20036;-76
2023/03/17 08:33:50;;;;;;;12.52;3.10;;;;;;;;;;4983599;28;20026;-77
2023/03/17 08:36:17;;;;;;;8.10;2.97;;;;;;;;;;4985273;28;20046;-76
2023/03/17 08:38:45;;;;;;;10.13;2.65;;;;;;;;;;4980928;28;20038;-77
2023/03/17 08:41:15;;;;;;;5.03;2.22;;;;;;;;;;4981699;28;20185;-76
2023/03/17 08:43:42;;;;;;;6.22;2.60;;;;;;;;;;5001320;28;20054;-77
2023/03/17 08:46:23;;;;;;;5.03;2.58;;;;;;;;;;4984405;28;21759;-76
2023/03/17 08:48:50;;;;;;;4.60;2.47;;;;;;;;;;4983328;28;20121;-76
2023/03/17 08:51:16;;;;;;;4.20;2.30;;;;;;;;;;4981374;28;20060;-77
2023/03/17 08:53:42;;;;;;;15.25;5.30;;;;;;;;;;4983825;28;20519;-78
2023/03/17 08:56:08;;;;;;;11.43;4.47;;;;;;;;;;4981573;28;20069;-77
2023/03/17 08:58:35;;;;;;;13.38;5.75;;;;;;;;;;4984311;28;20037;-77
2023/03/17 09:01:02;;;;;;;13.98;4.88;;;;;;;;;;4971711;28;20066;-77
2023/03/17 09:03:28;;;;;;;16.95;5.88;;;;;;;;;;4988777;28;20373;-76
2023/03/17 09:05:54;;;;;;;38.38;11.65;;;;;;;;;;4980811;28;20550;-76
2023/03/17 09:08:20;;;;;;;9.95;3.35;;;;;;;;;;4983450;28;20046;-77
2023/03/17 09:10:46;;;;;;;6.28;2.30;;;;;;;;;;4978810;28;20141;-78
2023/03/17 09:13:12;;;;;;;2.92;1.92;;;;;;;;;;4970043;28;20117;-77
2023/03/17 09:15:38;;;;;;;10.88;3.08;;;;;;;;;;4987785;28;20045;-77
2023/03/17 09:18:04;;;;;;;6.55;2.47;;;;;;;;;;4982061;28;20039;-77
2023/03/17 09:20:31;;;;;;;6.65;2.70;;;;;;;;;;4979641;28;20533;-76
2023/03/17 09:22:57;;;;;;;6.03;2.20;;;;;;;;;;4977492;28;20061;-77
2023/03/17 09:25:22;;;;;;;5.43;2.38;;;;;;;;;;4982249;28;20049;-77
2023/03/17 09:27:48;;;;;;;5.57;2.33;;;;;;;;;;4988432;28;20026;-73
2023/03/17 09:30:15;;;;;;;5.45;2.45;;;;;;;;;;4987675;28;20088;-77
2023/03/17 09:32:41;;;;;;;4.85;2.67;;;;;;;;;;4980625;28;20046;-77
2023/03/17 09:35:07;;;;;;;7.70;2.60;;;;;;;;;;4987858;28;20625;-77
2023/03/17 09:37:33;;;;;;;8.20;3.42;;;;;;;;;;4984529;28;20026;-73
2023/03/17 09:39:59;;;;;;;5.57;2.70;;;;;;;;;;4984726;28;20129;-77
2023/03/17 09:42:42;;;;;;;5.78;2.38;;;;;;;;;;4976492;28;20489;-77
2023/03/17 09:45:11;;;;;;;6.63;2.85;;;;;;;;;;4981547;28;20035;-77
2023/03/17 09:48:10;;;;;;;5.25;2.55;;;;;;;;;;4978036;28;20796;-77
2023/03/17 09:50:49;;;;;;;4.28;2.15;;;;;;;;;;4967786;28;20563;-77
2023/03/17 09:53:24;;;;;;;6.25;2.55;;;;;;;;;;4967486;28;20053;-77
2023/03/17 09:55:54;;;;;;;8.48;2.47;;;;;;;;;;4962684;28;20034;-77
2023/03/17 09:58:28;;;;;;;6.47;1.85;;;;;;;;;;4967505;28;20033;-77
2023/03/17 10:00:53;;;;;;;4.07;1.95;;;;;;;;;;4978688;28;20040;-76
2023/03/17 10:03:19;;;;;;;4.78;2.90;;;;;;;;;;4985714;28;20026;-77
2023/03/17 10:05:45;;;;;;;3.47;2.40;;;;;;;;;;4985966;28;20125;-77
2023/03/17 10:08:30;;;;;;;4.45;2.92;;;;;;;;;;4987436;28;20034;-77
2023/03/17 10:11:14;;;;;;;22.55;2.90;;;;;;;;;;4984819;28;20038;-77
2023/03/17 10:13:45;;;;;;;;;;;;;;;;;;4984855;28;20502;-77
2023/03/17 10:16:13;;;;;;;5.72;2.53;;;;;;;;;;4983314;28;20409;-77
2023/03/17 10:18:56;;;;;;;7.88;2.97;;;;;;;;;;4985728;28;20045;-77
2023/03/17 10:21:25;;;;;;;5.25;2.35;;;;;;;;;;4985333;28;20523;-77
2023/03/17 10:23:53;;;;;;;5.18;2.67;;;;;;;;;;4985870;28;20093;-77
2023/03/17 10:26:32;;;;;;;7.07;3.08;;;;;;;;;;4987194;28;20041;-77
2023/03/17 10:29:02;;;;;;;6.75;3.17;;;;;;;;;;4986551;28;20038;-77
2023/03/17 10:31:33;;;;;;;10.05;3.20;;;;;;;;;;4986417;28;20046;-78
2023/03/17 10:34:12;;;;;;;7.75;3.35;;;;;;;;;;4985876;28;20519;-77
2023/03/17 10:36:41;;;;;;;6.05;2.50;;;;;;;;;;4987141;28;20495;-77
2023/03/17 10:39:11;;;;;;;5.57;2.80;;;;;;;;;;4985701;28;20125;-77
2023/03/17 10:41:51;;;;;;;3.50;2.30;;;;;;;;;;4985630;28;20037;-77
2023/03/17 10:44:27;;;;;;;6.03;2.70;;;;;;;;;;4987120;28;20034;-77
2023/03/17 10:46:54;;;;;;;3.80;2.30;;;;;;;;;;4986744;28;20023;-77
2023/03/17 10:49:22;;;;;;;7.78;2.67;;;;;;;;;;4985367;28;20062;-77
2023/03/17 10:51:51;;;;;;;6.80;2.85;;;;;;;;;;4987043;28;20053;-77
2023/03/17 10:54:18;;;;;;;4.55;2.28;;;;;;;;;;4986299;28;20060;-77
2023/03/17 10:56:47;;;;;;;4.72;2.70;;;;;;;;;;4986974;28;20037;-77
2023/03/17 10:59:18;;;;;;;5.00;2.72;;;;;;;;;;4986241;28;20726;-78
2023/03/17 11:01:50;;;;;;;3.63;2.25;;;;;;;;;;4985723;28;20034;-77
2023/03/17 11:04:36;;;;;;;5.85;3.03;;;;;;;;;;4986333;28;20038;-77
2023/03/17 11:07:15;;;;;;;3.80;2.47;;;;;;;;;;4984228;28;20061;-77
2023/03/17 11:09:41;;;;;;;4.93;2.35;;;;;;;;;;4987107;28;20118;-77
2023/03/17 11:12:38;;;;;;;7.50;3.22;;;;;;;;;;4986097;28;20121;-77
2023/03/17 11:15:07;;;;;;;5.00;2.72;;;;;;;;;;4983059;28;20031;-77
2023/03/17 11:17:46;;;;;;;5.55;2.75;;;;;;;;;;4981513;28;20104;-77
2023/03/17 11:20:37;;;;;;;9.23;3.08;;;;;;;;;;4980480;28;20129;-76
2023/03/17 11:23:09;;;;;;;4.82;2.97;;;;;;;;;;4986130;28;20108;-77
2023/03/17 11:25:41;;;;;;;5.97;2.50;;;;;;;;;;4986080;28;20030;-77
2023/03/17 11:28:06;;;;;;;7.28;2.28;;;;;;;;;;4985166;28;20026;-77
2023/03/17 11:30:39;;;;;;;5.93;3.15;;;;;;;;;;4985112;28;20036;-77
2023/03/17 11:33:11;;;;;;;5.50;3.00;;;;;;;;;;4981980;28;20042;-76
2023/03/17 11:35:57;;;;;;;5.78;2.88;;;;;;;;;;4984635;28;20050;-77
2023/03/17 11:38:27;;;;;;;5.78;3.30;;;;;;;;;;4989861;28;20038;-77
2023/03/17 11:41:07;;;;;;;3.45;2.22;;;;;;;;;;4990396;28;20085;-77
2023/03/17 11:43:42;;;;;;;4.30;2.80;;;;;;;;;;4989420;28;20049;-77
2023/03/17 11:46:20;;;;;;;4.72;2.53;;;;;;;;;;4980384;28;20054;-76
2023/03/17 11:49:07;;;;;;;6.53;2.60;;;;;;;;;;4988166;28;20062;-77
2023/03/17 12:04:09;;;;;;;7.63;3.25;;;;;;;;;;5084416;27;20407;-76
2023/03/17 12:06:41;;;;;;;7.07;3.17;;;;;;;;;;5059734;28;20037;-78
2023/03/17 12:09:28;;;;;;;4.80;3.00;;;;;;;;;;5060348;28;20507;-78
2023/03/17 12:11:55;;;;;;;5.68;3.22;;;;;;;;;;5039241;28;20137;-78
2023/03/17 12:14:27;;;;;;;5.95;3.10;;;;;;;;;;5052472;28;20095;-78
2023/03/17 12:17:09;;;;;;;7.65;3.22;;;;;;;;;;5037385;28;20044;-77
2023/03/17 12:19:50;;;;;;;7.38;3.45;;;;;;;;;;5047732;28;20063;-77
2023/03/17 12:22:27;;;;;;;7.05;3.75;;;;;;;;;;5071978;28;20063;-76
2023/03/17 12:25:04;;;;;;;7.53;3.00;;;;;;;;;;5078896;28;20025;-79
2023/03/17 12:27:41;;;;;;;6.05;2.75;;;;;;;;;;5080777;28;20032;-77
2023/03/17 12:30:22;;;;;;;8.07;3.00;;;;;;;;;;5080577;28;20025;-78
2023/03/17 12:32:55;;;;;;;6.65;2.80;;;;;;;;;;5079564;28;20032;-77
2023/03/17 12:35:33;;;;;;;6.15;2.67;;;;;;;;;;5076200;27;20158;-77
2023/03/17 12:38:04;;;;;;;5.22;2.90;;;;;;;;;;5080601;28;20098;-77
2023/03/17 12:40:59;;;;;;;4.65;2.33;;;;;;;;;;5081286;28;20032;-78
2023/03/17 12:43:45;;;;;;;5.13;2.50;;;;;;;;;;5081143;28;20094;-78
2023/03/17 12:46:35;;;;;;;5.07;2.35;;;;;;;;;;5079532;28;20066;-77
2023/03/17 12:49:03;;;;;;;4.80;2.60;;;;;;;;;;5081580;28;20035;-78
2023/03/17 12:52:00;;;;;;;3.92;2.05;;;;;;;;;;5081503;28;20077;-78
2023/03/17 12:54:33;;;;;;;5.72;2.72;;;;;;;;;;5069318;28;20049;-79
2023/03/17 12:57:04;;;;;;;8.13;2.38;;;;;;;;;;5080419;28;20032;-79
2023/03/17 12:59:32;;;;;;;4.57;2.28;;;;;;;;;;5080010;28;20886;-78
2023/03/17 13:02:18;;;;;;;6.78;2.85;;;;;;;;;;5072966;28;20052;-77
2023/03/17 13:04:56;;;;;;;4.07;1.83;;;;;;;;;;5047838;28;20123;-78
2023/03/17 13:07:25;;;;;;;5.78;2.60;;;;;;;;;;5049424;28;20036;-78
2023/03/17 13:09:53;;;;;;;9.90;2.67;;;;;;;;;;5056090;28;20037;-78
2023/03/17 13:12:40;;;;;;;4.63;2.05;;;;;;;;;;5059086;28;20028;-77
2023/03/17 13:15:27;;;;;;;4.70;1.52;;;;;;;;;;5058125;28;20041;-77
2023/03/17 13:18:11;;;;;;;4.95;1.60;;;;;;;;;;5052386;28;20483;-78
2023/03/17 13:20:49;;;;;;;2.78;1.58;;;;;;;;;;5060515;28;20036;-78
2023/03/17 13:23:16;;;;;;;3.50;1.67;;;;;;;;;;5058927;28;20082;-78
2023/03/17 13:25:42;;;;;;;5.32;1.60;;;;;;;;;;5061151;28;20060;-77
2023/03/17 13:28:11;;;;;;;2.92;1.30;;;;;;;;;;5046868;28;20515;-77
2023/03/17 13:30:36;;;;;;;6.40;1.80;;;;;;;;;;5053755;28;21405;-77
2023/03/17 13:33:11;;;;;;;5.05;2.00;;;;;;;;;;5057976;28;20029;-75
2023/03/17 13:35:59;;;;;;;5.00;1.60;;;;;;;;;;5060454;28;20036;-77
2023/03/17 13:38:34;;;;;;;2.53;1.60;;;;;;;;;;5067287;28;20136;-78
2023/03/17 13:42:07;;;;;;;4.32;1.80;;;;;;;;;;5067654;28;20043;-77
2023/03/17 13:45:01;;;;;;;10.43;2.10;;;;;;;;;;5020721;28;20061;-76
2023/03/17 13:47:33;;;;;;;5.55;2.10;;;;;;;;;;5038876;28;20040;-79
2023/03/17 13:50:22;;;;;;;6.45;1.88;;;;;;;;;;5047288;28;20053;-78
2023/03/17 13:52:52;;;;;;;6.68;1.90;;;;;;;;;;5047649;28;20075;-77
2023/03/17 13:55:17;;;;;;;5.20;2.20;;;;;;;;;;5041543;28;20061;-78
2023/03/17 13:57:56;;;;;;;3.45;1.90;;;;;;;;;;5028158;28;20534;-78
2023/03/17 14:00:27;;;;;;;3.53;1.73;;;;;;;;;;5047472;28;20049;-78
2023/03/17 14:03:16;;;;;;;3.05;1.85;;;;;;;;;;5055739;28;20052;-77
2023/03/17 14:05:46;;;;;;;4.82;2.40;;;;;;;;;;5043523;28;20068;-78
2023/03/17 14:08:32;;;;;;;4.47;2.45;;;;;;;;;;5048416;28;20052;-77
2023/03/17 14:11:00;;;;;;;4.40;2.20;;;;;;;;;;5058859;28;20044;-78
2023/03/17 14:13:54;;;;;;;5.47;2.80;;;;;;;;;;5054395;28;20036;-77
2023/03/17 14:16:25;;;;;;;4.97;2.45;;;;;;;;;;5055395;28;20049;-78
2023/03/17 14:18:59;;;;;;;5.10;2.65;;;;;;;;;;5055652;28;20037;-78
2023/03/17 14:21:34;;;;;;;6.20;3.00;;;;;;;;;;5046648;28;20020;-78
2023/03/17 14:24:03;;;;;;;4.95;2.90;;;;;;;;;;5046815;28;20114;-78
2023/03/17 14:26:31;;;;;;;6.63;2.58;;;;;;;;;;5046625;28;20033;-79
2023/03/17 14:29:01;;;;;;;3.95;2.40;;;;;;;;;;5046874;28;20048;-76
2023/03/17 14:31:28;;;;;;;3.90;2.55;;;;;;;;;;5043745;28;20052;-78
2023/03/17 14:33:56;;;;;;;6.55;3.05;;;;;;;;;;5050918;28;20047;-77
2023/03/17 14:36:22;;;;;;;6.97;2.50;;;;;;;;;;5049306;28;20037;-77
2023/03/17 14:38:51;;;;;;;5.90;2.67;;;;;;;;;;5050815;28;20457;-78
2023/03/17 14:41:19;;;;;;;5.13;2.88;;;;;;;;;;5063719;28;20035;-78
2023/03/17 14:43:44;;;;;;;6.13;2.45;;;;;;;;;;5051049;28;20037;-78
2023/03/17 14:46:16;;;;;;;6.18;2.75;;;;;;;;;;5050165;28;20063;-77
2023/03/17 14:48:45;;;;;;;4.70;2.75;;;;;;;;;;5057844;28;20100;-77
2023/03/17 14:51:22;;;;;;;4.57;2.95;;;;;;;;;;5053674;28;20036;-78
2023/03/17 14:53:50;;;;;;;4.40;2.53;;;;;;;;;;5056960;28;20501;-76
2023/03/17 14:56:22;;;;;;;5.22;2.67;;;;;;;;;;5055697;28;20040;-76
2023/03/17 14:58:50;;;;;;;3.72;1.88;;;;;;;;;;5061872;28;20040;-77
2023/03/17 15:01:15;;;;;;;5.28;2.47;;;;;;;;;;5057395;28;20028;-78
2023/03/17 15:04:03;;;;;;;5.93;2.45;;;;;;;;;;5056953;28;20052;-77
2023/03/17 15:06:29;;;;;;;5.68;2.70;;;;;;;;;;5042648;28;20029;-77
2023/03/17 15:08:58;;;;;;;5.90;2.80;;;;;;;;;;5042187;28;20025;-77